Huang Shan, China
Current Conditions -  °F | °C
As of 5:00 AM on Tuesday 25 Nov 2014 (Local Time) from ZSNJ Reporting Station
Light Rain Light Rain  
Wind Chill: 52°   Ceiling: 3300
Heat Index: 52°   Visibility: 2.1mi
Dew Point: 50°   Wind: 2mph
Humidity: 94%   Direction: NA
Pressure: 30.09"   Gusts: NA
Location:  30.13°N, 118.15°E
Report Text: ZSNJ 242100Z VRB01MPS 3500 -RA BR BKN033 11/10 Q1019 NOSIG
Loading
Personal Weather Stations






























Interactive Weather Map New forecast layout! Learn more

10-Day Weather Forecast

Advertisements
Track Severe Weather on mobile